createdAt,value
2017-01-03T00:00:30.844Z,1006.51
2017-01-03T00:01:30.860Z,1006.52
2017-01-03T00:02:30.869Z,1006.48
2017-01-03T00:03:30.879Z,1006.47
2017-01-03T00:04:30.895Z,1006.44
2017-01-03T00:05:30.904Z,1006.47
2017-01-03T00:06:30.919Z,1006.45
2017-01-03T00:07:30.929Z,1006.4
2017-01-03T00:08:30.943Z,1006.4
2017-01-03T00:09:30.955Z,1006.38
2017-01-03T00:10:30.968Z,1006.39
2017-01-03T00:11:30.974Z,1006.47
2017-01-03T00:12:30.988Z,1006.39
2017-01-03T00:13:30.999Z,1006.42
2017-01-03T00:14:31.016Z,1006.41
2017-01-03T00:15:31.026Z,1006.43
2017-01-03T00:16:31.036Z,1006.39
2017-01-03T00:17:31.050Z,1006.37
2017-01-03T00:18:31.064Z,1006.42
2017-01-03T00:19:31.073Z,1006.42
2017-01-03T00:20:31.086Z,1006.38
2017-01-03T00:21:31.097Z,1006.34
2017-01-03T00:22:31.113Z,1006.41
2017-01-03T00:23:31.122Z,1006.36
2017-01-03T00:24:31.134Z,1006.43
2017-01-03T00:25:31.149Z,1006.44
2017-01-03T00:26:31.159Z,1006.43
2017-01-03T00:27:31.170Z,1006.44
2017-01-03T00:28:31.181Z,1006.47
2017-01-03T00:29:31.195Z,1006.43
2017-01-03T00:30:31.209Z,1006.44
2017-01-03T00:31:31.221Z,1006.44
2017-01-03T00:32:31.228Z,1006.42
2017-01-03T00:33:31.241Z,1006.46
2017-01-03T00:34:31.256Z,1006.46
2017-01-03T00:35:31.267Z,1006.43
2017-01-03T00:36:31.278Z,1006.47
2017-01-03T00:37:31.291Z,1006.45
2017-01-03T00:38:31.305Z,1006.44
2017-01-03T00:39:31.315Z,1006.51
2017-01-03T00:40:31.327Z,1006.47
2017-01-03T00:41:31.338Z,1006.47
2017-01-03T00:42:31.350Z,1006.48
2017-01-03T00:43:31.364Z,1006.52
2017-01-03T00:44:31.372Z,1006.51
2017-01-03T00:45:31.389Z,1006.49
2017-01-03T00:46:31.400Z,1006.49
2017-01-03T00:47:31.412Z,1006.49
2017-01-03T00:48:31.423Z,1006.46
2017-01-03T00:49:31.434Z,1006.42
2017-01-03T00:50:31.449Z,1006.41
2017-01-03T00:51:31.460Z,1006.39
2017-01-03T00:52:31.472Z,1006.34
2017-01-03T00:53:31.481Z,1006.33
2017-01-03T00:54:31.498Z,1006.4
2017-01-03T00:55:31.511Z,1006.38
2017-01-03T00:56:31.520Z,1006.37
2017-01-03T00:57:31.532Z,1006.34
2017-01-03T00:58:31.544Z,1006.32
2017-01-03T00:59:31.555Z,1006.29
2017-01-03T01:00:31.567Z,1006.29
2017-01-03T01:01:31.580Z,1006.31
2017-01-03T01:02:31.591Z,1006.23
2017-01-03T01:03:31.606Z,1006.28
2017-01-03T01:04:31.616Z,1006.2
2017-01-03T01:05:31.626Z,1006.21
2017-01-03T01:06:31.639Z,1006.21
2017-01-03T01:07:31.651Z,1006.27
2017-01-03T01:08:31.667Z,1006.36
2017-01-03T01:09:31.673Z,1006.36
2017-01-03T01:10:31.686Z,1006.38
2017-01-03T01:11:31.700Z,1006.37
2017-01-03T01:12:31.716Z,1006.42
2017-01-03T01:13:31.723Z,1006.35
2017-01-03T01:14:31.735Z,1006.39
2017-01-03T01:15:31.748Z,1006.39
2017-01-03T01:16:31.760Z,1006.41
2017-01-03T01:17:31.773Z,1006.38
2017-01-03T01:18:31.786Z,1006.38
2017-01-03T01:19:31.796Z,1006.43
2017-01-03T01:20:31.810Z,1006.44
2017-01-03T01:21:31.821Z,1006.46
2017-01-03T01:22:31.832Z,1006.51
2017-01-03T01:23:31.844Z,1006.45
2017-01-03T01:24:31.860Z,1006.47
2017-01-03T01:25:31.872Z,1006.48
2017-01-03T01:26:31.881Z,1006.47
2017-01-03T01:27:31.891Z,1006.46
2017-01-03T01:28:31.908Z,1006.5
2017-01-03T01:29:31.917Z,1006.46
2017-01-03T01:30:31.935Z,1006.48
2017-01-03T01:31:31.940Z,1006.48
2017-01-03T01:32:31.953Z,1006.53
2017-01-03T01:33:31.966Z,1006.47
2017-01-03T01:34:31.978Z,1006.42
2017-01-03T01:35:31.988Z,1006.5
2017-01-03T01:36:32.000Z,1006.44
2017-01-03T01:37:32.014Z,1006.49
2017-01-03T01:38:32.030Z,1006.46
2017-01-03T01:39:32.039Z,1006.47
2017-01-03T01:40:32.048Z,1006.5
2017-01-03T01:41:32.062Z,1006.5
2017-01-03T01:42:32.078Z,1006.48
2017-01-03T01:43:32.087Z,1006.46
2017-01-03T01:44:32.100Z,1006.44
2017-01-03T01:45:32.108Z,1006.44
2017-01-03T01:46:32.122Z,1006.43
2017-01-03T01:47:32.135Z,1006.46
2017-01-03T01:48:32.147Z,1006.5
2017-01-03T01:49:32.157Z,1006.54
2017-01-03T01:50:32.175Z,1006.51
2017-01-03T01:51:32.184Z,1006.53
2017-01-03T01:52:32.195Z,1006.49
2017-01-03T01:53:32.207Z,1006.52
2017-01-03T01:54:32.219Z,1006.51
2017-01-03T01:55:32.229Z,1006.45
2017-01-03T01:56:32.247Z,1006.52
2017-01-03T01:57:32.256Z,1006.57
2017-01-03T01:58:32.271Z,1006.53
2017-01-03T01:59:32.282Z,1006.52
2017-01-03T02:00:32.294Z,1006.55
2017-01-03T02:01:32.305Z,1006.58
2017-01-03T02:02:32.320Z,1006.57
2017-01-03T02:03:32.332Z,1006.62
2017-01-03T02:04:32.339Z,1006.62
2017-01-03T02:05:32.354Z,1006.59
2017-01-03T02:06:32.365Z,1006.66
2017-01-03T02:07:32.379Z,1006.64
2017-01-03T02:08:32.394Z,1006.63
2017-01-03T02:09:32.401Z,1006.66
2017-01-03T02:10:32.418Z,1006.68
2017-01-03T02:11:32.426Z,1006.72
2017-01-03T02:12:32.441Z,1006.73
2017-01-03T02:13:32.448Z,1006.74
2017-01-03T02:14:32.464Z,1006.73
2017-01-03T02:15:32.478Z,1006.67
2017-01-03T02:16:32.488Z,1006.76
2017-01-03T02:17:32.502Z,1006.77
2017-01-03T02:18:32.512Z,1006.74
2017-01-03T02:19:32.524Z,1006.72
2017-01-03T02:20:32.539Z,1006.74
2017-01-03T02:21:32.549Z,1006.72
2017-01-03T02:22:32.561Z,1006.71
2017-01-03T02:23:32.572Z,1006.7
2017-01-03T02:24:32.587Z,1006.72
2017-01-03T02:25:32.600Z,1006.74
2017-01-03T02:26:32.606Z,1006.68
2017-01-03T02:27:32.620Z,1006.68
2017-01-03T02:28:32.633Z,1006.64
2017-01-03T02:29:32.644Z,1006.66
2017-01-03T02:30:32.655Z,1006.62
2017-01-03T02:31:32.667Z,1006.66
2017-01-03T02:32:32.679Z,1006.64
2017-01-03T02:33:32.698Z,1006.66
2017-01-03T02:34:32.705Z,1006.63
2017-01-03T02:35:32.718Z,1006.65
2017-01-03T02:36:32.733Z,1006.67
2017-01-03T02:37:32.740Z,1006.58
2017-01-03T02:38:32.753Z,1006.62
2017-01-03T02:39:32.766Z,1006.63
2017-01-03T02:40:32.777Z,1006.66
2017-01-03T02:41:32.789Z,1006.64
2017-01-03T02:42:32.805Z,1006.58
2017-01-03T02:43:32.816Z,1006.6
2017-01-03T02:44:32.825Z,1006.59
2017-01-03T02:45:32.838Z,1006.51
2017-01-03T02:46:32.853Z,1006.55
2017-01-03T02:47:32.860Z,1006.5
2017-01-03T02:48:32.873Z,1006.48
2017-01-03T02:49:32.888Z,1006.43
2017-01-03T02:50:32.901Z,1006.4
2017-01-03T02:51:32.907Z,1006.37
2017-01-03T02:52:32.925Z,1006.38
2017-01-03T02:53:32.935Z,1006.33
2017-01-03T02:54:32.947Z,1006.35
2017-01-03T02:55:32.956Z,1006.33
2017-01-03T02:56:32.972Z,1006.33
2017-01-03T02:57:32.984Z,1006.33
2017-01-03T02:58:32.998Z,1006.34
2017-01-03T02:59:33.005Z,1006.33
2017-01-03T03:00:33.017Z,1006.31
2017-01-03T03:01:33.033Z,1006.31
2017-01-03T03:02:33.045Z,1006.31
2017-01-03T03:03:33.058Z,1006.27
2017-01-03T03:04:33.072Z,1006.28
2017-01-03T03:05:33.084Z,1006.28
2017-01-03T03:06:33.092Z,1006.32
2017-01-03T03:07:33.107Z,1006.28
2017-01-03T03:08:33.118Z,1006.25
2017-01-03T03:09:33.129Z,1006.28
2017-01-03T03:10:33.142Z,1006.23
2017-01-03T03:11:33.152Z,1006.23
2017-01-03T03:12:33.168Z,1006.26
2017-01-03T03:13:33.174Z,1006.26
2017-01-03T03:14:33.190Z,1006.25
2017-01-03T03:15:33.203Z,1006.24
2017-01-03T03:16:33.214Z,1006.23
2017-01-03T03:17:33.225Z,1006.24
2017-01-03T03:18:33.236Z,1006.19
2017-01-03T03:19:33.250Z,1006.15
2017-01-03T03:20:33.262Z,1006.17
2017-01-03T03:21:33.275Z,1006.19
2017-01-03T03:22:33.284Z,1006.16
2017-01-03T03:23:33.301Z,1006.18
2017-01-03T03:24:33.313Z,1006.15
2017-01-03T03:25:33.322Z,1006.16
2017-01-03T03:26:33.332Z,1006.17
2017-01-03T03:27:33.346Z,1006.16
2017-01-03T03:28:33.361Z,1006.16
2017-01-03T03:29:33.371Z,1006.15
2017-01-03T03:30:33.380Z,1006.19
2017-01-03T03:31:33.394Z,1006.14
2017-01-03T03:32:33.406Z,1006.15
2017-01-03T03:33:33.419Z,1006.15
2017-01-03T03:34:33.428Z,1006.17
2017-01-03T03:35:33.444Z,1006.2
2017-01-03T03:36:33.453Z,1006.24
2017-01-03T03:37:33.467Z,1006.2
2017-01-03T03:38:33.483Z,1006.3
2017-01-03T03:39:33.489Z,1006.23
2017-01-03T03:40:33.503Z,1006.26
2017-01-03T03:41:33.515Z,1006.26
2017-01-03T03:42:33.529Z,1006.26
2017-01-03T03:43:33.540Z,1006.26
2017-01-03T03:44:33.554Z,1006.25
2017-01-03T03:45:33.567Z,1006.27
2017-01-03T03:46:33.578Z,1006.33
2017-01-03T03:47:33.586Z,1006.3
2017-01-03T03:48:33.601Z,1006.29
2017-01-03T03:49:33.616Z,1006.23
2017-01-03T03:50:33.627Z,1006.23
2017-01-03T03:51:33.639Z,1006.22
2017-01-03T03:52:33.650Z,1006.22
2017-01-03T03:53:33.664Z,1006.22
2017-01-03T03:54:33.672Z,1006.25
2017-01-03T03:55:33.688Z,1006.24
2017-01-03T03:56:33.697Z,1006.26
2017-01-03T03:57:33.708Z,1006.23
2017-01-03T03:58:33.723Z,1006.26
2017-01-03T03:59:33.735Z,1006.25
2017-01-03T04:01:33.757Z,1006.2
2017-01-03T04:02:33.770Z,1006.2
2017-01-03T04:03:33.781Z,1006.22
2017-01-03T04:04:33.797Z,1006.25
2017-01-03T04:05:33.805Z,1006.25
2017-01-03T04:06:33.819Z,1006.32
2017-01-03T04:07:33.830Z,1006.27
2017-01-03T04:08:33.844Z,1006.25
2017-01-03T04:09:33.854Z,1006.25
2017-01-03T04:10:33.870Z,1006.2
2017-01-03T04:11:33.879Z,1006.22
2017-01-03T04:12:33.892Z,1006.27
2017-01-03T04:13:33.902Z,1006.21
2017-01-03T04:14:33.918Z,1006.19
2017-01-03T04:15:33.930Z,1006.18
2017-01-03T04:16:33.937Z,1006.2
2017-01-03T04:17:33.951Z,1006.2
2017-01-03T04:18:33.966Z,1006.12
2017-01-03T04:19:33.976Z,1006.05
2017-01-03T04:20:33.986Z,1006.06
2017-01-03T04:21:33.999Z,1006.09
2017-01-03T04:22:34.011Z,1006.06
2017-01-03T04:23:34.020Z,1006.04
2017-01-03T04:24:34.036Z,1006.03
2017-01-03T04:25:34.047Z,1006.06
2017-01-03T04:26:34.062Z,1006.06
2017-01-03T04:27:34.069Z,1006
2017-01-03T04:28:34.081Z,1006.01
2017-01-03T04:29:34.095Z,1005.98
2017-01-03T04:30:34.107Z,1005.98
2017-01-03T04:31:34.120Z,1006.01
2017-01-03T04:32:34.130Z,1006
2017-01-03T04:33:34.145Z,1005.97
2017-01-03T04:34:34.156Z,1005.93
2017-01-03T04:35:34.169Z,1005.95
2017-01-03T04:36:34.188Z,1005.9
2017-01-03T04:37:34.191Z,1005.89
2017-01-03T04:38:34.203Z,1005.88
2017-01-03T04:39:34.221Z,1005.85
2017-01-03T04:40:34.229Z,1005.85
2017-01-03T04:41:34.246Z,1005.78
2017-01-03T04:42:34.254Z,1005.84
2017-01-03T04:43:34.265Z,1005.74
2017-01-03T04:44:34.280Z,1005.76
2017-01-03T04:45:34.291Z,1005.8
2017-01-03T04:46:34.303Z,1005.87
2017-01-03T04:47:34.312Z,1005.88
2017-01-03T04:48:34.328Z,1005.87
2017-01-03T04:49:34.334Z,1005.83
2017-01-03T04:50:34.348Z,1005.85
2017-01-03T04:51:34.364Z,1005.91
2017-01-03T04:52:34.375Z,1005.8
2017-01-03T04:53:34.384Z,1005.81
2017-01-03T04:54:34.394Z,1005.87
2017-01-03T04:55:34.409Z,1005.8
2017-01-03T04:56:34.423Z,1005.78
2017-01-03T04:57:34.432Z,1005.75
2017-01-03T04:58:34.447Z,1005.77
2017-01-03T04:59:34.460Z,1005.69
2017-01-03T05:00:34.468Z,1005.7
2017-01-03T05:01:34.485Z,1005.65
2017-01-03T05:02:34.496Z,1005.67
2017-01-03T05:03:34.509Z,1005.6
2017-01-03T05:04:34.516Z,1005.61
2017-01-03T05:05:34.530Z,1005.58
2017-01-03T05:06:34.544Z,1005.57
2017-01-03T05:07:34.555Z,1005.5
2017-01-03T05:08:34.567Z,1005.44
2017-01-03T05:09:34.578Z,1005.45
2017-01-03T05:10:34.592Z,1005.47
2017-01-03T05:11:34.602Z,1005.45
2017-01-03T05:12:34.616Z,1005.49
2017-01-03T05:13:34.628Z,1005.46
2017-01-03T05:14:34.641Z,1005.47
2017-01-03T05:15:34.654Z,1005.45
2017-01-03T05:16:34.663Z,1005.47
2017-01-03T05:17:34.676Z,1005.49
2017-01-03T05:18:34.686Z,1005.48
2017-01-03T05:19:34.701Z,1005.49
2017-01-03T05:20:34.714Z,1005.41
2017-01-03T05:21:34.720Z,1005.46
2017-01-03T05:22:34.733Z,1005.46
2017-01-03T05:23:34.749Z,1005.53
2017-01-03T05:24:34.762Z,1005.53
2017-01-03T05:25:34.773Z,1005.55
2017-01-03T05:26:34.781Z,1005.5
2017-01-03T05:27:34.793Z,1005.56
2017-01-03T05:28:34.807Z,1005.52
2017-01-03T05:29:34.818Z,1005.52
2017-01-03T05:30:34.832Z,1005.51
2017-01-03T05:31:34.848Z,1005.46
2017-01-03T05:32:34.858Z,1005.46
2017-01-03T05:33:34.866Z,1005.45
2017-01-03T05:34:34.882Z,1005.44
2017-01-03T05:35:34.896Z,1005.48
2017-01-03T05:36:34.902Z,1005.47
2017-01-03T05:37:34.921Z,1005.53
2017-01-03T05:38:34.929Z,1005.6
2017-01-03T05:39:34.942Z,1005.61
2017-01-03T05:40:34.952Z,1005.51
2017-01-03T05:41:34.965Z,1005.51
2017-01-03T05:42:34.975Z,1005.43
2017-01-03T05:43:34.988Z,1005.55
2017-01-03T05:44:35.005Z,1005.51
2017-01-03T05:45:35.015Z,1005.53
2017-01-03T05:46:35.026Z,1005.44
2017-01-03T05:47:35.037Z,1005.4
2017-01-03T05:48:35.051Z,1005.41
2017-01-03T05:49:35.065Z,1005.4
2017-01-03T05:50:35.075Z,1005.46
2017-01-03T05:51:35.089Z,1005.4
2017-01-03T05:52:35.097Z,1005.36
2017-01-03T05:53:35.110Z,1005.42
2017-01-03T05:54:35.122Z,1005.36
2017-01-03T05:55:35.137Z,1005.4
2017-01-03T05:56:35.149Z,1005.43
2017-01-03T05:57:35.160Z,1005.39
2017-01-03T05:58:35.175Z,1005.31
2017-01-03T05:59:35.187Z,1005.32
2017-01-03T06:00:35.199Z,1005.29
2017-01-03T06:01:35.210Z,1005.36
2017-01-03T06:02:35.219Z,1005.3
2017-01-03T06:03:35.231Z,1005.25
2017-01-03T06:04:35.247Z,1005.33
2017-01-03T06:05:35.257Z,1005.37
2017-01-03T06:06:35.269Z,1005.33
2017-01-03T06:07:35.279Z,1005.25
2017-01-03T06:08:35.296Z,1005.28
2017-01-03T06:09:35.309Z,1005.28
2017-01-03T06:10:35.318Z,1005.2
2017-01-03T06:11:35.333Z,1005.22
2017-01-03T06:12:35.345Z,1005.2
2017-01-03T06:13:35.358Z,1005.2
2017-01-03T06:14:35.370Z,1005.2
2017-01-03T06:15:35.379Z,1005.15
2017-01-03T06:16:35.391Z,1005.22
2017-01-03T06:17:35.404Z,1005.26
2017-01-03T06:18:35.419Z,1005.3
2017-01-03T06:19:35.433Z,1005.24
2017-01-03T06:20:35.441Z,1005.17
2017-01-03T06:21:35.459Z,1005.15
2017-01-03T06:22:35.469Z,1005.18
2017-01-03T06:23:35.481Z,1005.16
2017-01-03T06:24:35.493Z,1005.15
2017-01-03T06:25:35.506Z,1005.15
2017-01-03T06:26:35.517Z,1005.03
2017-01-03T06:27:35.527Z,1004.99
2017-01-03T06:28:35.541Z,1005.05
2017-01-03T06:29:35.556Z,1005.03
2017-01-03T06:30:35.565Z,1005.09
2017-01-03T06:31:35.578Z,1005.08
2017-01-03T06:32:35.591Z,1005.02
2017-01-03T06:33:35.604Z,1005.02
2017-01-03T06:34:35.618Z,1005.09
2017-01-03T06:35:35.626Z,1005.11
2017-01-03T06:36:35.641Z,1005.06
2017-01-03T06:37:35.656Z,1005.09
2017-01-03T06:38:35.666Z,1005.1
2017-01-03T06:39:35.679Z,1005.04
2017-01-03T06:40:35.688Z,1005.07
2017-01-03T06:41:35.701Z,1005.09
2017-01-03T06:42:35.712Z,1005.09
2017-01-03T06:43:35.724Z,1005.06
2017-01-03T06:44:35.736Z,1005.11
2017-01-03T06:45:35.753Z,1005.1
2017-01-03T06:46:35.761Z,1005.11
2017-01-03T06:47:35.771Z,1005.08
2017-01-03T06:48:35.788Z,1005.07
2017-01-03T06:49:35.800Z,1005.17
2017-01-03T06:50:35.810Z,1005.12
2017-01-03T06:51:35.826Z,1005.11
2017-01-03T06:52:35.838Z,1005.12
2017-01-03T06:53:35.845Z,1005.14
2017-01-03T06:54:35.861Z,1005.09
2017-01-03T06:55:35.874Z,1005.08
2017-01-03T06:56:35.887Z,1005.13
2017-01-03T06:57:35.899Z,1005.13
2017-01-03T06:58:35.912Z,1005.16
2017-01-03T06:59:35.922Z,1005.13
2017-01-03T07:00:35.932Z,1005.13
2017-01-03T07:01:35.948Z,1005.1
2017-01-03T07:02:35.957Z,1005.1
2017-01-03T07:03:35.970Z,1005.14
2017-01-03T07:04:35.988Z,1005.14
2017-01-03T07:05:35.993Z,1005.18
2017-01-03T07:06:36.010Z,1005.18
2017-01-03T07:07:36.020Z,1005.22
2017-01-03T07:08:36.034Z,1005.22
2017-01-03T07:09:36.045Z,1005.25
2017-01-03T07:10:36.059Z,1005.23
2017-01-03T07:11:36.068Z,1005.21
2017-01-03T07:12:36.083Z,1005.23
2017-01-03T07:13:36.096Z,1005.3
2017-01-03T07:14:36.106Z,1005.29
2017-01-03T07:15:36.118Z,1005.31
2017-01-03T07:16:36.133Z,1005.33
2017-01-03T07:17:36.144Z,1005.33
2017-01-03T07:18:36.156Z,1005.3
2017-01-03T07:19:36.171Z,1005.38
2017-01-03T07:20:36.185Z,1005.3
2017-01-03T07:21:36.195Z,1005.27
2017-01-03T07:22:36.206Z,1005.3
2017-01-03T07:23:36.216Z,1005.35
2017-01-03T07:24:36.231Z,1005.35
2017-01-03T07:25:36.244Z,1005.34
2017-01-03T07:26:36.254Z,1005.3
2017-01-03T07:27:36.269Z,1005.32
2017-01-03T07:28:36.277Z,1005.29
2017-01-03T07:29:36.293Z,1005.26
2017-01-03T07:30:36.305Z,1005.31
2017-01-03T07:31:36.319Z,1005.32
2017-01-03T07:32:36.328Z,1005.21
2017-01-03T07:33:36.341Z,1005.27
2017-01-03T07:34:36.353Z,1005.24
2017-01-03T07:35:36.364Z,1005.3
2017-01-03T07:36:36.377Z,1005.26
2017-01-03T07:37:36.391Z,1005.26
2017-01-03T07:38:36.402Z,1005.29
2017-01-03T07:39:36.411Z,1005.3
2017-01-03T07:40:36.425Z,1005.25
2017-01-03T07:41:36.439Z,1005.27
2017-01-03T07:42:36.453Z,1005.29
2017-01-03T07:43:36.466Z,1005.21
2017-01-03T07:44:36.475Z,1005.32
2017-01-03T07:45:36.485Z,1005.34
2017-01-03T07:46:36.502Z,1005.37
2017-01-03T07:47:36.518Z,1005.3
2017-01-03T07:48:36.528Z,1005.33
2017-01-03T07:49:36.537Z,1005.34
2017-01-03T07:50:36.552Z,1005.4
2017-01-03T07:51:36.562Z,1005.36
2017-01-03T07:52:36.573Z,1005.32
2017-01-03T07:53:36.589Z,1005.3
2017-01-03T07:54:36.602Z,1005.29
2017-01-03T07:55:36.616Z,1005.32
2017-01-03T07:56:36.627Z,1005.32
2017-01-03T07:57:36.639Z,1005.3
2017-01-03T07:58:36.649Z,1005.29
2017-01-03T07:59:36.663Z,1005.32
2017-01-03T08:00:36.675Z,1005.29
2017-01-03T08:01:36.688Z,1005.3
2017-01-03T08:02:36.701Z,1005.34
2017-01-03T08:03:36.712Z,1005.38
2017-01-03T08:04:36.724Z,1005.38
2017-01-03T08:05:36.741Z,1005.41
2017-01-03T08:06:36.750Z,1005.41
2017-01-03T08:07:36.760Z,1005.38
2017-01-03T08:08:36.775Z,1005.41
2017-01-03T08:09:36.783Z,1005.4
2017-01-03T08:10:36.794Z,1005.36
2017-01-03T08:11:36.812Z,1005.37
2017-01-03T08:12:36.822Z,1005.45
2017-01-03T08:13:36.834Z,1005.4
2017-01-03T08:14:36.851Z,1005.45
2017-01-03T08:15:36.861Z,1005.47
2017-01-03T08:16:36.869Z,1005.5
2017-01-03T08:17:36.881Z,1005.55
2017-01-03T08:18:36.898Z,1005.52
2017-01-03T08:19:36.907Z,1005.57
2017-01-03T08:20:36.919Z,1005.59
2017-01-03T08:21:36.935Z,1005.63
2017-01-03T08:22:36.945Z,1005.64
2017-01-03T08:23:36.956Z,1005.63
2017-01-03T08:24:36.972Z,1005.67
2017-01-03T08:25:36.983Z,1005.67
2017-01-03T08:26:36.998Z,1005.68
2017-01-03T08:27:37.008Z,1005.68
2017-01-03T08:28:37.019Z,1005.66
2017-01-03T08:29:37.029Z,1005.65
2017-01-03T08:30:37.048Z,1005.69
2017-01-03T08:31:37.057Z,1005.68
2017-01-03T08:32:37.071Z,1005.75
2017-01-03T08:33:37.085Z,1005.74
2017-01-03T08:34:37.095Z,1005.65
2017-01-03T08:35:37.107Z,1005.69
2017-01-03T08:36:37.119Z,1005.75
2017-01-03T08:37:37.130Z,1005.7
2017-01-03T08:38:37.145Z,1005.71
2017-01-03T08:39:37.154Z,1005.64
2017-01-03T08:40:37.170Z,1005.68
2017-01-03T08:41:37.182Z,1005.77
2017-01-03T08:42:37.194Z,1005.73
2017-01-03T08:43:37.206Z,1005.77
2017-01-03T08:44:37.218Z,1005.73
2017-01-03T08:45:37.231Z,1005.73
2017-01-03T08:46:37.242Z,1005.74
2017-01-03T08:47:37.258Z,1005.81
2017-01-03T08:48:37.267Z,1005.73
2017-01-03T08:49:37.283Z,1005.69
2017-01-03T08:50:37.293Z,1005.75
2017-01-03T08:51:37.303Z,1005.69
2017-01-03T08:52:37.315Z,1005.74
2017-01-03T08:53:37.331Z,1005.73
2017-01-03T08:54:37.342Z,1005.7
2017-01-03T08:55:37.355Z,1005.76
2017-01-03T08:56:37.367Z,1005.78
2017-01-03T08:57:37.376Z,1005.76
2017-01-03T08:58:37.391Z,1005.74
2017-01-03T08:59:37.405Z,1005.69
2017-01-03T09:00:37.416Z,1005.7
2017-01-03T09:01:37.429Z,1005.71
2017-01-03T09:02:37.444Z,1005.74
2017-01-03T09:03:37.457Z,1005.76
2017-01-03T09:04:37.467Z,1005.76
2017-01-03T09:05:37.479Z,1005.74
2017-01-03T09:06:37.487Z,1005.74
2017-01-03T09:07:37.502Z,1005.75
2017-01-03T09:08:37.514Z,1005.84
2017-01-03T09:09:37.531Z,1005.82
2017-01-03T09:10:37.543Z,1005.85
2017-01-03T09:11:37.552Z,1005.85
2017-01-03T09:12:37.564Z,1005.87
2017-01-03T09:13:37.579Z,1005.84
2017-01-03T09:14:37.590Z,1005.78
2017-01-03T09:15:37.598Z,1005.8
2017-01-03T09:16:37.615Z,1005.78
2017-01-03T09:17:37.626Z,1005.82
2017-01-03T09:18:37.638Z,1005.75
2017-01-03T09:19:37.649Z,1005.78
2017-01-03T09:20:37.661Z,1005.78
2017-01-03T09:21:37.672Z,1005.87
2017-01-03T09:22:37.685Z,1005.82
2017-01-03T09:23:37.701Z,1005.84
2017-01-03T09:24:37.714Z,1005.87
2017-01-03T09:25:37.724Z,1005.85
2017-01-03T09:26:37.738Z,1005.83
2017-01-03T09:27:37.748Z,1005.83
2017-01-03T09:28:37.764Z,1005.86
2017-01-03T09:29:37.775Z,1005.94
2017-01-03T09:30:37.788Z,1005.89
2017-01-03T09:31:37.801Z,1005.89
2017-01-03T09:32:37.813Z,1005.84
2017-01-03T09:33:37.825Z,1005.9
2017-01-03T09:34:37.836Z,1005.93
2017-01-03T09:35:37.850Z,1005.93
2017-01-03T09:36:37.861Z,1005.89
2017-01-03T09:37:37.872Z,1005.92
2017-01-03T09:38:37.883Z,1005.93
2017-01-03T09:39:37.895Z,1005.94
2017-01-03T09:40:37.912Z,1005.89
2017-01-03T09:41:37.924Z,1005.83
2017-01-03T09:42:37.934Z,1005.86
2017-01-03T09:43:37.946Z,1005.81
2017-01-03T09:44:37.955Z,1005.84
2017-01-03T09:45:37.971Z,1005.84
2017-01-03T09:46:37.981Z,1005.74
2017-01-03T09:47:37.997Z,1005.76
2017-01-03T09:48:38.011Z,1005.67
2017-01-03T09:49:38.022Z,1005.68
2017-01-03T09:50:38.032Z,1005.55
2017-01-03T09:51:38.049Z,1005.59
2017-01-03T09:52:38.055Z,1005.6
2017-01-03T09:53:38.070Z,1005.65
2017-01-03T09:54:38.083Z,1005.66
2017-01-03T09:55:38.093Z,1005.77
2017-01-03T09:56:38.105Z,1005.69
2017-01-03T09:57:38.122Z,1005.66
2017-01-03T09:58:38.135Z,1005.67
2017-01-03T09:59:38.140Z,1005.62
2017-01-03T10:00:38.157Z,1005.57
2017-01-03T10:01:38.219Z,1005.59
2017-01-03T10:02:38.179Z,1005.57
2017-01-03T10:03:38.193Z,1005.63
2017-01-03T10:04:38.208Z,1005.51
2017-01-03T10:05:38.218Z,1005.57
2017-01-03T10:06:38.230Z,1005.5
2017-01-03T10:07:38.247Z,1005.53
2017-01-03T10:08:38.260Z,1005.52
2017-01-03T10:09:38.269Z,1005.53
2017-01-03T10:10:38.279Z,1005.5
2017-01-03T10:11:38.291Z,1005.52
2017-01-03T10:12:38.308Z,1005.5
2017-01-03T10:13:38.318Z,1005.48
2017-01-03T10:14:38.331Z,1005.47
2017-01-03T10:15:38.344Z,1005.37
2017-01-03T10:16:38.357Z,1005.41
2017-01-03T10:17:38.368Z,1005.39
2017-01-03T10:18:38.379Z,1005.3
2017-01-03T10:19:38.395Z,1005.34
2017-01-03T10:20:38.407Z,1005.36
2017-01-03T10:21:38.417Z,1005.34
2017-01-03T10:22:38.430Z,1005.35
2017-01-03T10:23:38.446Z,1005.36
2017-01-03T10:24:38.456Z,1005.29
2017-01-03T10:25:38.473Z,1005.31
2017-01-03T10:26:38.483Z,1005.29
2017-01-03T10:27:38.495Z,1005.33
2017-01-03T10:28:38.504Z,1005.25
2017-01-03T10:29:38.519Z,1005.22
2017-01-03T10:30:38.533Z,1005.3
2017-01-03T10:31:38.543Z,1005.26
2017-01-03T10:32:38.559Z,1005.22
2017-01-03T10:33:38.571Z,1005.27
2017-01-03T10:34:38.583Z,1005.26
2017-01-03T10:35:38.646Z,1005.31
2017-01-03T10:36:38.646Z,1005.32
2017-01-03T10:37:38.621Z,1005.39
2017-01-03T10:38:38.630Z,1005.29
2017-01-03T10:39:38.645Z,1005.36
2017-01-03T10:40:38.656Z,1005.32
2017-01-03T10:41:38.720Z,1005.33
2017-01-03T10:42:38.732Z,1005.37
2017-01-03T10:43:38.695Z,1005.29
2017-01-03T10:44:38.709Z,1005.32
2017-01-03T10:45:38.719Z,1005.28
2017-01-03T10:46:38.732Z,1005.33
2017-01-03T10:47:38.747Z,1005.32
2017-01-03T10:48:38.755Z,1005.29
2017-01-03T10:49:38.768Z,1005.31
2017-01-03T10:50:38.784Z,1005.27
2017-01-03T10:51:38.797Z,1005.26
2017-01-03T10:52:38.811Z,1005.22
2017-01-03T10:53:38.823Z,1005.19
2017-01-03T10:54:38.834Z,1005.18
2017-01-03T10:55:38.845Z,1005.1
2017-01-03T10:56:38.861Z,1005
2017-01-03T10:57:38.871Z,1005.05
2017-01-03T10:58:38.885Z,1005.08
2017-01-03T10:59:38.899Z,1005.01
2017-01-03T11:00:38.909Z,1005
2017-01-03T11:01:38.922Z,1005.01
2017-01-03T11:02:38.938Z,1004.9
2017-01-03T11:03:38.947Z,1004.92
2017-01-03T11:04:38.961Z,1004.89
2017-01-03T11:05:38.977Z,1004.89
2017-01-03T11:06:38.987Z,1004.83
2017-01-03T11:07:38.999Z,1004.85
2017-01-03T11:08:39.011Z,1004.77
2017-01-03T11:09:39.025Z,1004.82
2017-01-03T11:10:39.036Z,1004.79
2017-01-03T11:11:39.052Z,1004.74
2017-01-03T11:12:39.062Z,1004.69
2017-01-03T11:13:39.077Z,1004.62
2017-01-03T11:14:39.088Z,1004.69
2017-01-03T11:15:39.101Z,1004.68
2017-01-03T11:16:39.112Z,1004.65
2017-01-03T11:17:39.124Z,1004.63
2017-01-03T11:18:39.137Z,1004.62
2017-01-03T11:19:39.153Z,1004.58
2017-01-03T11:20:39.166Z,1004.62
2017-01-03T11:21:39.178Z,1004.6
2017-01-03T11:22:39.188Z,1004.58
2017-01-03T11:23:39.201Z,1004.57
2017-01-03T11:24:39.219Z,1004.58
2017-01-03T11:25:39.229Z,1004.59
2017-01-03T11:26:39.238Z,1004.62
2017-01-03T11:27:39.254Z,1004.62
2017-01-03T11:28:39.267Z,1004.52
2017-01-03T11:29:39.282Z,1004.46
2017-01-03T11:30:39.290Z,1004.44
2017-01-03T11:31:39.306Z,1004.44
2017-01-03T11:32:39.316Z,1004.35
2017-01-03T11:33:39.330Z,1004.41
2017-01-03T11:34:39.343Z,1004.44
2017-01-03T11:35:39.356Z,1004.41
2017-01-03T11:36:39.370Z,1004.42
2017-01-03T11:37:39.381Z,1004.37
2017-01-03T11:38:39.395Z,1004.4
2017-01-03T11:39:39.407Z,1004.39
2017-01-03T11:40:39.419Z,1004.35
2017-01-03T11:41:39.429Z,1004.37
2017-01-03T11:42:39.445Z,1004.33
2017-01-03T11:43:39.459Z,1004.32
2017-01-03T11:44:39.472Z,1004.32
2017-01-03T11:45:39.483Z,1004.33
2017-01-03T11:46:39.497Z,1004.19
2017-01-03T11:47:39.511Z,1004.22
2017-01-03T11:48:39.523Z,1004.23
2017-01-03T11:49:39.531Z,1004.22
2017-01-03T11:50:39.546Z,1004.23
2017-01-03T11:51:39.557Z,1004.25
2017-01-03T11:52:39.571Z,1004.22
2017-01-03T11:53:39.582Z,1004.18
2017-01-03T11:54:39.596Z,1004.25
2017-01-03T11:55:39.609Z,1004.19
2017-01-03T11:56:39.625Z,1004.18
2017-01-03T11:57:39.638Z,1004.19
2017-01-03T11:58:39.651Z,1004.2
2017-01-03T11:59:39.664Z,1004.18
2017-01-03T12:00:39.674Z,1004.16
2017-01-03T12:01:39.690Z,1004.23
2017-01-03T12:02:39.701Z,1004.17
2017-01-03T12:03:39.715Z,1004.16
2017-01-03T12:04:39.730Z,1004.18
2017-01-03T12:05:39.739Z,1004.16
2017-01-03T12:06:39.754Z,1004.23
2017-01-03T12:07:39.763Z,1004.13
2017-01-03T12:08:39.778Z,1004.12
2017-01-03T12:09:39.791Z,1004.1